< < Back
Terminal Aerodrome Forecast


Current Version              Previous Versions:   1  2  3  4  5  6  7  8  9  

Terminal Aerodrome Forecast

591
FTUS44 KMOB 042348
TAFMOB
TAF
KMOB 042348Z 0500/0524 19012KT P6SM BKN014 BKN018 OVC027
     FM050500 18006KT 1/2SM FG OVC002
     FM051500 35016G26KT 3SM -RA BR OVC004
     FM051800 36016KT 4SM -RA BR OVC015=

Latest METAR

828
SAUS80 KWBC 050200 CCA
MTRMOB
METAR KMOB 050156Z 22005KT 4SM RA BR BKN008 OVC011 22/21 A2995 RMK AO2
RAB40 SLP140 P0006 T02170206


USA.gov is the U.S. government's official web portal to all federal, state and local government web resources and services.